Yuma, Tennessee
Current Conditions -  °F | °C
As of 12:55 AM on Monday 24 Nov 2014 (Local Time) from KPVE Reporting Station
Few Clouds Few Clouds  
Wind Chill: 61°   Ceiling: Unl
Heat Index: 61°   Visibility: 10mi
Dew Point: 55°   Wind: 16mph
Humidity: 82%   Direction: 190°S
Pressure: 29.44"   Gusts: NA
Location:  35.85°N, 88.34°W
Report Text: KPVE 240655Z AUTO 19014KT 10SM FEW026 16/13 A2944 RMK
Loading
Personal Weather Stations






























Interactive Weather Map New forecast layout! Learn more

10-Day Weather Forecast

Advertisements
Track Severe Weather on mobile